Time;durP1;ratioP1;P1;durP2;ratioP2;P2;SDS_P1;SDS_P2;PMS_P1;PMS_P2;Temp;Humidity;BMP_temperature;BMP_pressure;BME280_temperature;BME280_humidity;BME280_pressure;Samples;Min_cycle;Max_cycle;Signal;HPM_P1;HPM_P2
2023/08/06 06:10:03;;;;;;;9.30;8.40;;;;;;;28.08;100.00;98952.49;101525;1290;601231;-58
2023/08/06 06:12:32;;;;;;;10.10;8.80;;;;;;;28.45;100.00;98949.38;103936;1268;61820;-55
2023/08/06 06:15:00;;;;;;;8.30;7.50;;;;;;;28.53;100.00;98945.91;103823;1265;59353;-56
2023/08/06 06:17:28;;;;;;;10.30;8.30;;;;;;;28.62;100.00;98944.52;103715;1270;71937;-57
2023/08/06 06:19:56;;;;;;;8.90;8.00;;;;;;;28.73;100.00;98937.17;103655;1282;69630;-58
2023/08/06 06:22:24;;;;;;;8.50;7.80;;;;;;;28.82;100.00;98933.42;104046;1272;72342;-57
2023/08/06 06:24:51;;;;;;;9.40;7.30;;;;;;;28.91;100.00;98928.27;105304;1264;201114;-57
2023/08/06 06:27:19;;;;;;;7.90;7.30;;;;;;;29.03;100.00;98927.98;103961;1269;60077;-57
2023/08/06 06:29:46;;;;;;;8.70;7.50;;;;;;;29.13;100.00;98922.16;106840;1264;72217;-58
2023/08/06 06:32:14;;;;;;;12.50;8.10;;;;;;;29.22;100.00;98920.36;107082;1262;69153;-58
2023/08/06 06:34:42;;;;;;;10.80;8.30;;;;;;;29.26;100.00;98914.14;105931;1264;74243;-58
2023/08/06 06:37:09;;;;;;;10.60;7.60;;;;;;;29.35;100.00;98913.58;104746;1264;61424;-58
2023/08/06 06:39:37;;;;;;;8.30;7.10;;;;;;;29.41;100.00;98911.59;106996;1264;60702;-58
2023/08/06 06:42:04;;;;;;;;;;;;;;;29.49;100.00;98905.98;107156;1263;72763;-58
2023/08/06 06:44:35;;;;;;;7.70;7.10;;;;;;;29.60;100.00;98905.91;104684;1257;68172;-57
2023/08/06 06:47:03;;;;;;;;;;;;;;;29.66;100.00;98906.83;104284;1276;72502;-56
2023/08/06 06:49:31;;;;;;;9.40;8.30;;;;;;;29.74;100.00;98904.33;104235;1257;61437;-57
2023/08/06 06:51:58;;;;;;;;;;;;;;;29.83;100.00;98896.66;104377;1260;61181;-58
2023/08/06 06:54:26;;;;;;;9.10;7.80;;;;;;;29.92;100.00;98896.83;104170;1261;72864;-57
2023/08/06 06:56:54;;;;;;;7.20;6.70;;;;;;;30.04;100.00;98893.64;104313;1260;69173;-57
2023/08/06 06:59:21;;;;;;;12.50;9.40;;;;;;;30.15;100.00;98886.28;104315;1257;72882;-57
2023/08/06 07:01:49;;;;;;;7.80;7.10;;;;;;;30.25;100.00;98881.52;104231;1266;61402;-58
2023/08/06 07:04:16;;;;;;;;;;;;;;;30.36;100.00;98874.10;104341;1262;60088;-57
2023/08/06 07:06:44;;;;;;;11.30;7.30;;;;;;;30.37;100.00;98869.05;104421;1263;72824;-57
2023/08/06 07:09:12;;;;;;;;;;;;;;;30.42;100.00;98867.60;104105;1267;70015;-61
2023/08/06 07:11:41;;;;;;;6.70;6.20;;;;;;;30.46;100.00;98856.55;104505;1258;71421;-58
2023/08/06 07:14:09;;;;;;;8.70;6.80;;;;;;;30.50;100.00;98858.16;104314;1260;61493;-57
2023/08/06 07:16:37;;;;;;;11.00;6.50;;;;;;;30.53;100.00;98855.86;104278;1258;59809;-57
2023/08/06 07:19:05;;;;;;;7.40;6.80;;;;;;;30.59;100.00;98849.70;104597;1261;72753;-57
2023/08/06 07:21:33;;;;;;;7.30;6.60;;;;;;;30.67;100.00;98843.87;104316;1262;69043;-58
2023/08/06 07:24:00;;;;;;;7.10;6.50;;;;;;;30.76;100.00;98836.90;107172;1256;73224;-58
2023/08/06 07:26:28;;;;;;;;;;;;;;;30.84;100.00;98832.48;107652;1258;61603;-58
2023/08/06 07:28:56;;;;;;;7.30;6.00;;;;;;;30.92;100.00;98828.83;104369;1258;60454;-58
2023/08/06 07:31:23;;;;;;;7.30;6.10;;;;;;;31.01;100.00;98824.52;104351;1254;73352;-58
2023/08/06 07:33:51;;;;;;;7.80;6.60;;;;;;;31.11;100.00;98821.61;104698;1257;68563;-58
2023/08/06 07:36:18;;;;;;;;;;;;;;;31.23;100.00;98818.98;104473;1277;72732;-57
2023/08/06 07:38:48;;;;;;;6.50;5.90;;;;;;;31.30;100.00;98824.91;104609;1260;59983;-57
2023/08/06 07:41:16;;;;;;;7.10;6.40;;;;;;;31.36;100.00;98826.70;104244;1258;59746;-58
2023/08/06 07:43:43;;;;;;;;;;;;;;;31.45;100.00;98824.02;104190;1262;75051;-57
2023/08/06 07:46:13;;;;;;;6.10;5.40;;;;;;;31.47;100.00;98815.41;104185;1260;69829;-57
2023/08/06 07:48:41;;;;;;;6.70;6.10;;;;;;;31.56;100.00;98814.71;104584;1261;72491;-57
2023/08/06 07:51:08;;;;;;;;;;;;;;;31.64;99.79;98809.66;104069;1258;59846;-57
2023/08/06 07:53:36;;;;;;;7.30;6.10;;;;;;;31.66;100.00;98809.02;104067;1263;59669;-57
2023/08/06 07:56:04;;;;;;;;;;;;;;;31.72;100.00;98807.30;104161;1270;72852;-57
2023/08/06 07:58:31;;;;;;;7.20;6.50;;;;;;;31.80;100.00;98805.38;104293;1262;69244;-57
2023/08/06 08:00:59;;;;;;;8.50;5.70;;;;;;;31.88;100.00;98803.92;104255;1267;71148;-57
2023/08/06 08:03:31;;;;;;;7.30;5.80;;;;;;;31.99;99.72;98797.41;104359;1266;60601;-57
2023/08/06 08:05:59;;;;;;;6.60;6.00;;;;;;;32.08;98.44;98793.83;104181;1263;61673;-58
2023/08/06 08:08:26;;;;;;;9.50;5.90;;;;;;;32.15;99.84;98794.08;104159;1276;71961;-58
2023/08/06 08:10:55;;;;;;;7.90;5.80;;;;;;;32.22;100.00;98793.34;104195;1258;69022;-57
2023/08/06 08:13:22;;;;;;;6.00;5.40;;;;;;;32.32;99.34;98787.70;104500;1274;72349;-63
2023/08/06 08:15:50;;;;;;;8.00;5.20;;;;;;;32.42;98.38;98786.37;104283;1256;60284;-59
2023/08/06 08:18:18;;;;;;;5.70;5.30;;;;;;;32.49;96.83;98781.08;104087;1263;60098;-59
2023/08/06 08:20:45;;;;;;;6.00;4.90;;;;;;;32.56;94.72;98781.87;103997;1263;72885;-58
2023/08/06 08:23:13;;;;;;;;;;;;;;;32.61;91.81;98780.00;104885;1257;69184;-60
2023/08/06 18:27:33;;;;;;;6.10;4.50;;;;;;;31.24;96.74;98204.94;101516;1292;601280;-59
2023/08/06 18:30:02;;;;;;;7.50;5.00;;;;;;;31.47;93.97;98199.92;103737;1267;59797;-59
2023/08/06 18:32:30;;;;;;;7.00;4.90;;;;;;;31.42;93.87;98201.65;106712;1265;60002;-59
2023/08/06 18:34:57;;;;;;;6.60;4.60;;;;;;;31.40;95.34;98197.80;104334;1266;72266;-59
2023/08/06 18:37:25;;;;;;;11.90;4.90;;;;;;;31.35;95.73;98193.99;103771;1269;69827;-59
2023/08/06 18:40:00;;;;;;;10.40;5.30;;;;;;;31.32;95.60;98191.30;103851;1267;73016;-59
2023/08/06 18:42:29;;;;;;;10.30;4.90;;;;;;;31.27;95.63;98189.23;104160;1264;60294;-60
2023/08/06 18:44:56;;;;;;;8.50;5.00;;;;;;;31.26;95.59;98187.48;103950;1263;60053;-58
2023/08/06 18:47:27;;;;;;;;;;;;;;;31.22;95.66;98188.96;104020;1263;71941;-59
2023/08/06 18:49:55;;;;;;;8.20;4.40;;;;;;;31.15;96.24;98186.73;104027;1263;68387;-59
2023/08/06 18:52:22;;;;;;;8.90;4.70;;;;;;;31.12;95.69;98184.48;103993;1268;74158;-58
2023/08/06 18:54:51;;;;;;;9.40;5.40;;;;;;;31.10;95.65;98186.93;104046;1263;60038;-58
2023/08/06 18:57:19;;;;;;;8.80;4.80;;;;;;;31.09;95.70;98182.28;104183;1264;59883;-59
2023/08/06 18:59:47;;;;;;;11.40;4.90;;;;;;;31.06;96.30;98180.70;104250;1268;72908;-58
2023/08/06 19:02:14;;;;;;;5.70;4.30;;;;;;;31.03;95.82;98178.80;104207;1263;69296;-58
2023/08/06 19:04:42;;;;;;;5.90;4.50;;;;;;;31.00;96.57;98174.85;103989;1279;71765;-59
2023/08/06 19:07:10;;;;;;;;;;;;;;;31.01;96.07;98171.52;103969;1262;60331;-59
2023/08/06 19:09:37;;;;;;;13.30;4.70;;;;;;;30.98;95.10;98173.73;104433;1272;59765;-59
2023/08/06 19:12:06;;;;;;;5.80;4.70;;;;;;;31.01;95.28;98172.07;104417;1264;72746;-59
2023/08/06 19:14:34;;;;;;;12.70;4.70;;;;;;;30.96;95.89;98165.38;104972;1257;69258;-59
2023/08/06 19:17:03;;;;;;;7.30;4.70;;;;;;;30.95;96.77;98167.07;104356;1253;72416;-59
2023/08/06 19:19:30;;;;;;;8.00;4.50;;;;;;;30.93;97.03;98168.02;104309;1259;60262;-60
2023/08/06 19:21:58;;;;;;;11.70;4.70;;;;;;;30.92;96.99;98171.72;104438;1252;59819;-60
2023/08/06 19:24:26;;;;;;;;;;;;;;;30.91;97.51;98171.82;104391;1251;73226;-59
2023/08/06 19:26:54;;;;;;;7.90;4.80;;;;;;;30.88;98.00;98173.49;106428;1254;69114;-60
2023/08/06 19:29:21;;;;;;;8.60;4.50;;;;;;;30.85;98.11;98171.23;104969;1254;72341;-60
2023/08/06 19:31:49;;;;;;;14.00;5.30;;;;;;;30.84;99.28;98172.80;107700;1251;59788;-60
2023/08/06 19:34:33;;;;;;;12.60;4.80;;;;;;;30.82;99.80;98172.81;106637;1254;59861;-60
2023/08/06 19:37:01;;;;;;;7.70;4.90;;;;;;;30.80;100.00;98172.60;104791;1269;73292;-60
2023/08/06 19:39:28;;;;;;;7.10;4.80;;;;;;;30.79;100.00;98168.15;104474;1251;68855;-60
2023/08/06 19:41:56;;;;;;;;;;;;;;;30.77;100.00;98168.27;104321;1251;72457;-60
2023/08/06 19:44:24;;;;;;;11.30;4.90;;;;;;;30.73;100.00;98170.55;104475;1256;59349;-60
2023/08/06 19:46:52;;;;;;;7.50;5.00;;;;;;;30.70;100.00;98166.52;104332;1256;60304;-60
2023/08/06 19:49:20;;;;;;;7.50;5.00;;;;;;;30.69;100.00;98171.31;104411;1257;72857;-60
2023/08/06 19:51:47;;;;;;;12.70;5.00;;;;;;;30.65;100.00;98165.65;104421;1253;69166;-60
2023/08/06 19:54:15;;;;;;;;;;;;;;;30.68;100.00;98163.38;104409;1260;72514;-60
2023/08/06 19:56:43;;;;;;;8.20;4.60;;;;;;;30.66;100.00;98161.16;104331;1251;59766;-60
2023/08/06 19:59:10;;;;;;;8.20;5.20;;;;;;;30.64;100.00;98160.20;104484;1257;60113;-60
2023/08/06 20:01:38;;;;;;;;;;;;;;;30.61;100.00;98155.77;104385;1264;73179;-60
2023/08/06 20:04:06;;;;;;;10.50;5.20;;;;;;;30.52;100.00;98161.17;104393;1256;69103;-61
2023/08/06 20:06:34;;;;;;;12.20;5.20;;;;;;;30.43;100.00;98158.54;104356;1268;73372;-59
2023/08/06 20:09:01;;;;;;;;;;;;;;;30.43;100.00;98154.76;104368;1260;60192;-60
2023/08/06 20:11:30;;;;;;;12.70;5.20;;;;;;;30.42;100.00;98154.56;104397;1253;59708;-60
2023/08/06 20:13:57;;;;;;;9.00;5.00;;;;;;;30.39;100.00;98152.59;104304;1258;72793;-59
2023/08/06 20:16:25;;;;;;;8.70;5.30;;;;;;;30.37;100.00;98152.49;104449;1254;69316;-59
2023/08/06 20:18:53;;;;;;;11.20;5.00;;;;;;;30.35;100.00;98148.48;104440;1264;72515;-60
2023/08/06 20:21:20;;;;;;;;;;;;;;;30.35;100.00;98142.61;104500;1257;60328;-59
2023/08/06 20:23:48;;;;;;;6.90;4.80;;;;;;;30.34;100.00;98134.19;104379;1253;60387;-59
2023/08/06 20:26:16;;;;;;;;;;;;;;;30.33;100.00;98131.48;104393;1266;72891;-60
2023/08/06 20:28:43;;;;;;;12.60;5.30;;;;;;;30.28;100.00;98127.77;104481;1257;69022;-60
2023/08/06 20:31:11;;;;;;;;;;;;;;;30.24;100.00;98129.55;105956;1253;73698;-60
2023/08/06 20:33:38;;;;;;;9.10;5.20;;;;;;;30.20;100.00;98128.95;108456;1251;59772;-60
2023/08/06 20:36:06;;;;;;;;;;;;;;;30.16;100.00;98124.89;105426;1253;60067;-60
2023/08/06 20:38:34;;;;;;;12.40;4.90;;;;;;;30.13;100.00;98125.60;104701;1254;72767;-60
2023/08/06 20:41:01;;;;;;;6.60;4.70;;;;;;;30.08;100.00;98122.79;104988;1254;68439;-60
2023/08/06 20:43:29;;;;;;;;;;;;;;;30.09;100.00;98122.64;104878;1253;71279;-61
2023/08/06 20:46:03;;;;;;;10.80;4.80;;;;;;;30.09;100.00;98123.23;104948;1254;59922;-60
2023/08/06 20:48:31;;;;;;;6.90;5.00;;;;;;;30.07;100.00;98117.05;104490;1256;59758;-60
2023/08/06 20:50:59;;;;;;;7.20;4.80;;;;;;;30.08;100.00;98117.88;105661;1251;73720;-60
2023/08/06 20:53:27;;;;;;;8.10;4.80;;;;;;;30.07;100.00;98121.27;108455;1251;68252;-61
2023/08/06 20:56:02;;;;;;;7.70;4.80;;;;;;;30.05;100.00;98123.62;106245;1254;72551;-60
2023/08/06 20:58:30;;;;;;;8.00;5.20;;;;;;;30.04;100.00;98119.89;104783;1256;59914;-59
2023/08/06 21:00:59;;;;;;;7.00;4.80;;;;;;;30.03;100.00;98118.20;104822;1253;59474;-61
2023/08/06 21:03:29;;;;;;;6.70;5.00;;;;;;;30.03;100.00;98121.19;104488;1256;73793;-60
2023/08/06 21:06:01;;;;;;;10.80;5.10;;;;;;;30.02;100.00;98118.29;104849;1269;69143;-60
2023/08/06 21:08:30;;;;;;;8.90;5.10;;;;;;;29.99;100.00;98115.90;104449;1257;72527;-60
2023/08/06 21:10:58;;;;;;;8.10;4.90;;;;;;;29.95;100.00;98114.54;104518;1257;59806;-59
2023/08/06 21:13:27;;;;;;;7.60;4.60;;;;;;;29.93;100.00;98115.57;104563;1257;59648;-60
2023/08/06 21:15:56;;;;;;;8.10;5.70;;;;;;;29.90;100.00;98109.90;104534;1254;72781;-60
2023/08/06 21:18:32;;;;;;;8.20;5.00;;;;;;;29.86;100.00;98108.02;104645;1254;68127;-60
2023/08/06 21:21:01;;;;;;;13.80;4.90;;;;;;;29.83;100.00;98109.73;104748;1251;72494;-59
2023/08/06 21:23:31;;;;;;;6.70;4.80;;;;;;;29.83;100.00;98111.44;104429;1253;60754;-59
2023/08/06 21:26:01;;;;;;;10.20;5.10;;;;;;;29.80;100.00;98109.30;104505;1257;60780;-59
2023/08/06 21:28:29;;;;;;;6.30;4.80;;;;;;;29.79;100.00;98110.32;104795;1250;71944;-60
2023/08/06 21:31:03;;;;;;;9.20;4.90;;;;;;;29.78;100.00;98108.88;105473;1251;69096;-63
2023/08/06 21:33:32;;;;;;;9.90;4.40;;;;;;;29.76;100.00;98101.77;108408;1254;72793;-60
2023/08/06 21:36:01;;;;;;;6.10;4.90;;;;;;;29.75;100.00;98102.08;106846;1252;60754;-60
2023/08/06 21:38:33;;;;;;;7.60;4.50;;;;;;;29.75;100.00;98104.01;104906;1257;60134;-60
2023/08/06 21:41:05;;;;;;;11.20;5.00;;;;;;;29.73;100.00;98107.60;104860;1251;71971;-60
2023/08/06 21:43:36;;;;;;;10.20;4.90;;;;;;;29.72;100.00;98106.17;104542;1257;69034;-60
2023/08/06 21:46:05;;;;;;;7.10;4.80;;;;;;;29.72;100.00;98104.23;104714;1254;72437;-60
2023/08/06 21:48:37;;;;;;;8.00;4.90;;;;;;;29.67;100.00;98108.10;104390;1255;61272;-60
2023/08/06 21:51:07;;;;;;;5.40;4.70;;;;;;;29.65;100.00;98102.88;104566;1254;59685;-59
2023/08/06 21:53:36;;;;;;;8.70;5.30;;;;;;;29.63;100.00;98100.73;104770;1251;73648;-60
2023/08/06 21:56:09;;;;;;;7.40;5.10;;;;;;;29.63;100.00;98102.77;104475;1267;69446;-59
2023/08/06 21:58:50;;;;;;;5.40;4.60;;;;;;;29.62;100.00;98105.07;104599;1257;72426;-60
2023/08/06 22:01:17;;;;;;;8.90;4.90;;;;;;;29.60;100.00;98098.36;104823;1253;60088;-60
2023/08/06 22:03:45;;;;;;;5.40;4.70;;;;;;;29.58;100.00;98096.96;104582;1257;59845;-60
2023/08/06 22:06:13;;;;;;;;;;;;;;;29.57;100.00;98095.30;104549;1255;72965;-60
2023/08/06 22:08:41;;;;;;;7.10;4.60;;;;;;;29.54;100.00;98090.55;104288;1257;69112;-59
2023/08/06 22:11:09;;;;;;;10.00;5.50;;;;;;;29.53;100.00;98090.35;104711;1256;72481;-59
2023/08/06 22:13:37;;;;;;;7.60;4.90;;;;;;;29.54;100.00;98086.85;104856;1257;59756;-59
